Time;durP1;ratioP1;P1;durP2;ratioP2;P2;SDS_P1;SDS_P2;PMS_P1;PMS_P2;Temp;Humidity;BMP_temperature;BMP_pressure;BME280_temperature;BME280_humidity;BME280_pressure;Samples;Min_cycle;Max_cycle;Signal;HPM_P1;HPM_P2
2023/02/09 00:01:19;;;;;;;2.38;1.55;;;;;;;7.74;87.10;102424.47;2086792;28;20068;-83
2023/02/09 00:02:42;;;;;;;6.75;1.65;;;;;;;7.74;84.75;102419.22;2089923;28;20135;-83
2023/02/09 00:04:05;;;;;;;3.40;1.48;;;;;;;7.74;83.37;102420.13;2091184;28;20131;-83
2023/02/09 00:05:26;;;;;;;3.17;1.77;;;;;;;7.76;82.00;102433.31;2094235;28;20056;-84
2023/02/09 00:06:48;;;;;;;4.38;1.30;;;;;;;7.76;81.43;102422.81;2092614;28;20125;-82
2023/02/09 00:08:10;;;;;;;3.05;1.40;;;;;;;7.76;80.57;102407.94;2086230;28;20456;-82
2023/02/09 00:09:33;;;;;;;5.35;1.60;;;;;;;7.77;80.34;102427.25;2092894;28;20051;-82
2023/02/09 00:10:54;;;;;;;4.07;1.75;;;;;;;7.77;79.98;102417.63;2095067;28;20522;-82
2023/02/09 00:13:58;;;;;;;4.07;1.95;;;;;;;7.79;80.13;102417.72;2093884;28;20076;-82
2023/02/09 00:15:19;;;;;;;3.50;1.50;;;;;;;7.80;79.12;102414.28;2090810;28;20048;-82
2023/02/09 00:16:42;;;;;;;6.03;1.65;;;;;;;7.81;78.30;102416.97;2090805;28;20056;-82
2023/02/09 00:18:03;;;;;;;5.32;1.67;;;;;;;7.83;78.83;102414.44;2091585;28;20032;-83
2023/02/09 00:19:25;;;;;;;3.50;1.13;;;;;;;7.82;79.13;102413.53;2092303;28;20056;-82
2023/02/09 00:20:54;;;;;;;5.97;1.85;;;;;;;7.84;79.14;102411.88;2095667;28;20059;-81
2023/02/09 00:22:16;;;;;;;6.75;1.90;;;;;;;7.84;79.11;102411.88;2085583;28;20054;-81
2023/02/09 00:23:41;;;;;;;4.68;1.80;;;;;;;7.84;78.51;102410.97;2094128;28;20415;-82
2023/02/09 00:25:04;;;;;;;4.85;2.05;;;;;;;7.83;78.51;102420.59;2093588;28;20048;-82
2023/02/09 00:26:25;;;;;;;5.38;1.70;;;;;;;7.83;79.30;102420.59;2092468;28;20051;-83
2023/02/09 00:27:49;;;;;;;4.15;1.48;;;;;;;7.82;79.94;102413.53;2095019;28;20081;-83
2023/02/09 00:29:12;;;;;;;3.10;1.40;;;;;;;7.82;79.65;102418.78;2095336;28;20040;-83
2023/02/09 00:30:33;;;;;;;4.63;1.70;;;;;;;7.82;79.73;102423.13;2079655;28;20492;-82
2023/02/09 00:31:56;;;;;;;3.53;1.63;;;;;;;7.79;80.39;102410.75;2083389;28;20103;-83
2023/02/09 00:33:17;;;;;;;4.60;1.80;;;;;;;7.81;79.39;102421.34;2087057;28;20061;-83
2023/02/09 00:34:40;;;;;;;4.40;2.15;;;;;;;7.81;79.49;102416.97;2080594;28;20084;-82
2023/02/09 00:36:04;;;;;;;4.53;1.40;;;;;;;7.81;80.13;102411.72;2092383;28;20044;-82
2023/02/09 00:37:26;;;;;;;4.63;1.83;;;;;;;7.82;81.20;102423.13;2093609;28;20712;-82
2023/02/09 00:38:49;;;;;;;4.45;1.30;;;;;;;7.81;80.61;102411.72;2092399;28;20063;-82
2023/02/09 00:40:12;;;;;;;4.53;1.50;;;;;;;7.81;79.79;102409.09;2099474;28;21606;-82
2023/02/09 00:43:28;;;;;;;2.83;1.27;;;;;;;7.83;78.23;102410.06;2094869;28;20052;-82
2023/02/09 00:44:51;;;;;;;4.80;1.70;;;;;;;7.84;78.45;102411.88;2086046;28;20064;-82
2023/02/09 00:46:15;;;;;;;3.83;1.38;;;;;;;7.85;79.31;102418.97;2085029;28;20056;-82
2023/02/09 00:47:42;;;;;;;4.22;1.20;;;;;;;7.84;79.78;102413.63;2084512;28;20060;-82
2023/02/09 00:49:04;;;;;;;6.90;1.65;;;;;;;7.81;80.66;102416.97;2084055;28;20060;-83
2023/02/09 00:50:26;;;;;;;;;;;;;;;7.76;80.77;102410.56;2085801;28;20053;-82
2023/02/09 00:51:52;;;;;;;6.28;1.80;;;;;;;7.77;81.47;102416.72;2091536;28;20317;-82
2023/02/09 00:53:18;;;;;;;3.78;1.60;;;;;;;7.78;82.07;102411.56;2092123;28;20086;-82
2023/02/09 00:54:39;;;;;;;5.03;1.75;;;;;;;7.78;82.37;102405.41;2096986;28;20052;-82
2023/02/09 00:56:07;;;;;;;3.63;1.35;;;;;;;7.79;82.45;102413.38;2084192;28;20699;-82
2023/02/09 00:57:34;;;;;;;4.90;1.50;;;;;;;7.79;83.38;102413.38;2095041;28;20040;-82
2023/02/09 00:59:01;;;;;;;5.43;2.00;;;;;;;7.82;83.97;102402.09;2093071;28;20143;-82
2023/02/09 01:00:23;;;;;;;3.90;1.45;;;;;;;7.85;84.72;102403.19;2096031;28;20081;-82
2023/02/09 01:01:44;;;;;;;2.60;1.30;;;;;;;7.90;84.68;102398.16;2085219;28;20112;-82
2023/02/09 01:03:09;;;;;;;4.72;1.52;;;;;;;7.94;84.17;102397.50;2096203;28;20136;-82
2023/02/09 01:04:31;;;;;;;4.25;1.63;;;;;;;7.98;83.56;102381.06;2094314;28;20063;-82
2023/02/09 01:05:55;;;;;;;5.45;1.90;;;;;;;8.05;82.61;102392.81;2088205;28;20044;-82
2023/02/09 01:07:17;;;;;;;4.15;1.60;;;;;;;8.10;82.12;102394.84;2092711;28;20056;-82
2023/02/09 01:08:40;;;;;;;2.50;1.48;;;;;;;8.15;81.61;102390.72;2086033;28;20448;-82
2023/02/09 01:10:02;;;;;;;4.32;1.52;;;;;;;8.20;81.35;102384.00;2086110;28;20102;-81
2023/02/09 01:11:26;;;;;;;5.65;1.60;;;;;;;8.23;81.65;102375.34;2091153;28;20052;-82
2023/02/09 01:12:49;;;;;;;5.38;1.70;;;;;;;8.28;80.68;102373.81;2091536;28;20087;-83
2023/02/09 01:14:11;;;;;;;3.38;1.60;;;;;;;8.30;79.64;102367.88;2091361;28;20462;-82
2023/02/09 01:15:34;;;;;;;4.22;1.70;;;;;;;8.33;79.54;102372.41;2087759;28;20045;-83
2023/02/09 01:16:55;;;;;;;4.57;1.50;;;;;;;8.36;79.99;102367.28;2090620;28;20073;-82
2023/02/09 01:18:20;;;;;;;3.25;2.10;;;;;;;8.36;80.32;102367.28;2088189;28;21327;-82
2023/02/09 01:19:43;;;;;;;4.22;1.92;;;;;;;8.38;80.30;102374.44;2085318;28;20068;-83
2023/02/09 01:21:10;;;;;;;5.57;2.17;;;;;;;8.42;81.39;102371.94;2092339;28;20044;-82
2023/02/09 01:22:33;;;;;;;2.70;1.67;;;;;;;8.42;82.82;102362.31;2083337;28;20063;-82
2023/02/09 01:23:55;;;;;;;4.22;1.70;;;;;;;8.44;84.17;102360.66;2080671;28;20149;-83
2023/02/09 01:25:17;;;;;;;6.03;2.45;;;;;;;8.46;85.75;102358.13;2084987;28;20567;-82
2023/02/09 01:26:39;;;;;;;4.75;2.28;;;;;;;8.47;87.52;102363.44;2089322;28;20091;-82
2023/02/09 01:28:03;;;;;;;3.67;2.15;;;;;;;8.50;89.04;102350.44;2086405;28;20114;-84
2023/02/09 01:29:28;;;;;;;5.57;2.40;;;;;;;8.51;90.89;102352.25;2097591;28;20059;-83
2023/02/09 01:30:49;;;;;;;4.88;2.30;;;;;;;8.51;91.75;102352.25;2090185;28;20126;-83
2023/02/09 01:32:14;;;;;;;4.15;2.05;;;;;;;8.54;92.96;102348.84;2090484;28;20555;-83
2023/02/09 01:33:38;;;;;;;5.57;2.22;;;;;;;8.53;93.59;102350.59;2096479;28;20475;-82
2023/02/09 01:35:02;;;;;;;4.80;1.95;;;;;;;8.55;94.00;102342.75;2084630;28;20076;-82
2023/02/09 01:36:25;;;;;;;6.22;2.40;;;;;;;8.57;94.05;102341.13;2088929;28;20142;-83
2023/02/09 01:37:48;;;;;;;3.55;2.08;;;;;;;8.58;93.99;102346.47;2092137;28;20147;-81
2023/02/09 01:39:11;;;;;;;6.35;2.10;;;;;;;8.59;94.15;102345.66;2099364;28;20711;-82
2023/02/09 01:40:36;;;;;;;8.55;1.83;;;;;;;8.60;94.56;102347.41;2093183;28;20122;-82
2023/02/09 01:41:58;;;;;;;6.43;2.08;;;;;;;8.61;95.38;102349.22;2092276;28;20047;-82
2023/02/09 01:43:22;;;;;;;4.95;1.83;;;;;;;8.61;96.29;102351.84;2098603;28;20097;-82
2023/02/09 01:45:22;;;;;;;6.25;2.50;;;;;;;8.59;97.13;102348.28;2084205;28;20045;-83
2023/02/09 01:46:44;;;;;;;5.57;2.55;;;;;;;8.58;97.48;102343.84;2055864;28;20641;-83
2023/02/09 01:48:06;;;;;;;5.82;2.55;;;;;;;8.59;97.85;102345.66;2040137;29;20748;-83
2023/02/09 01:49:29;;;;;;;5.28;2.47;;;;;;;8.61;98.08;102343.06;2085051;28;20789;-83
2023/02/09 01:50:54;;;;;;;8.30;2.95;;;;;;;8.61;98.55;102341.34;2089457;28;20040;-84
2023/02/09 01:52:21;;;;;;;7.60;2.63;;;;;;;8.63;98.33;102337.06;2087647;28;20059;-82
2023/02/09 01:53:43;;;;;;;6.43;2.08;;;;;;;8.63;99.09;102323.88;2097825;28;20160;-82
2023/02/09 01:55:09;;;;;;;5.18;2.50;;;;;;;8.64;99.65;102332.69;2086005;28;20056;-83
2023/02/09 01:56:32;;;;;;;4.72;2.05;;;;;;;8.65;99.66;102339.78;2081434;28;20053;-82
2023/02/09 01:57:59;;;;;;;5.50;2.20;;;;;;;8.65;99.94;102339.78;2094323;28;20051;-83
2023/02/09 01:59:22;;;;;;;7.20;2.45;;;;;;;8.67;100.00;102349.53;2085152;28;20095;-83
2023/02/09 02:00:46;;;;;;;6.38;2.38;;;;;;;8.70;100.00;102349.69;2078873;28;20338;-83
2023/02/09 02:02:14;;;;;;;3.75;2.33;;;;;;;8.71;100.00;102337.44;2090370;28;20057;-83
2023/02/09 02:03:37;;;;;;;4.93;2.10;;;;;;;8.71;100.00;102345.34;2078557;28;20045;-83
2023/02/09 02:04:59;;;;;;;4.72;2.03;;;;;;;8.71;100.00;102348.88;2083223;28;20071;-82
2023/02/09 02:06:22;;;;;;;;;;;;;;;8.68;100.00;102345.16;2083964;28;20132;-82
2023/02/09 02:07:55;;;;;;;5.65;2.55;;;;;;;8.69;100.00;102336.44;2086024;28;19982;-81
2023/02/09 02:09:22;;;;;;;5.55;2.35;;;;;;;8.70;100.00;102335.63;2082722;28;20056;-82
2023/02/09 02:10:46;;;;;;;4.03;1.95;;;;;;;8.70;100.00;102335.63;2081007;28;20060;-82
2023/02/09 02:12:09;;;;;;;3.75;2.20;;;;;;;8.70;100.00;102346.16;2073561;28;20045;-83
2023/02/09 02:13:33;;;;;;;5.22;2.40;;;;;;;8.71;100.00;102351.50;2079037;28;20070;-83
2023/02/09 02:14:54;;;;;;;5.72;2.17;;;;;;;8.71;100.00;102346.22;2089751;28;20047;-83
2023/02/09 02:19:58;;;;;;;6.20;2.53;;;;;;;8.72;100.00;102332.25;2094283;27;20396;-81
2023/02/09 02:21:47;;;;;;;4.53;2.17;;;;;;;8.70;100.00;102331.25;2082989;28;20063;-82
2023/02/09 02:23:18;;;;;;;3.22;2.17;;;;;;;8.71;100.00;102340.06;2091037;28;20045;-82
2023/02/09 02:25:07;;;;;;;5.47;2.10;;;;;;;8.71;100.00;102332.16;2089724;28;20505;-82
2023/02/09 02:26:55;;;;;;;5.93;2.70;;;;;;;8.70;100.00;102327.72;2106108;28;20051;-82
2023/02/09 02:28:32;;;;;;;7.15;2.45;;;;;;;8.71;100.00;102332.16;2082657;28;20835;-83
2023/02/09 02:30:27;;;;;;;5.78;2.38;;;;;;;8.72;100.00;102320.81;2089714;28;20146;-83
2023/02/09 02:32:23;;;;;;;5.32;2.25;;;;;;;8.71;100.00;102319.91;2085938;28;20052;-83
2023/02/09 02:33:53;;;;;;;6.13;2.47;;;;;;;8.72;100.00;102320.81;2091259;28;20057;-83
2023/02/09 02:35:23;;;;;;;5.53;2.10;;;;;;;8.72;100.00;102316.44;2104543;28;20066;-83
2023/02/09 02:36:55;;;;;;;5.32;2.30;;;;;;;8.74;100.00;102319.13;2092578;28;20521;-83
2023/02/09 02:38:22;;;;;;;5.32;2.03;;;;;;;8.74;99.77;102309.50;2088980;28;20650;-83
2023/02/09 02:39:51;;;;;;;4.40;2.05;;;;;;;8.75;99.57;102306.03;2091412;28;20496;-83
2023/02/09 02:41:20;;;;;;;4.75;1.77;;;;;;;8.77;100.00;102320.19;2090248;28;20048;-83
2023/02/09 02:42:53;;;;;;;5.97;2.20;;;;;;;8.77;100.00;102320.19;2091698;28;20051;-83
2023/02/09 02:44:20;;;;;;;6.00;2.20;;;;;;;8.76;100.00;102323.66;2089828;28;20048;-83
2023/02/09 02:45:44;;;;;;;8.38;2.78;;;;;;;8.78;100.00;102331.63;2103044;28;20048;-83
2023/02/09 02:47:11;;;;;;;7.80;2.42;;;;;;;8.75;100.00;102313.94;2092578;28;20064;-83
2023/02/09 02:48:41;;;;;;;4.47;2.20;;;;;;;8.74;100.00;102317.41;2097289;28;20047;-82
2023/02/09 02:50:14;;;;;;;6.13;2.13;;;;;;;8.72;100.00;102308.56;2082806;28;21040;-85
2023/02/09 02:51:43;;;;;;;6.72;1.88;;;;;;;8.72;100.00;102302.38;2088219;28;20482;-84
2023/02/09 02:53:10;;;;;;;4.75;2.17;;;;;;;8.71;100.00;102298.84;2104751;28;20048;-84
2023/02/09 02:54:39;;;;;;;6.65;2.35;;;;;;;8.73;100.00;102309.41;2083987;28;20049;-85
2023/02/09 02:56:11;;;;;;;3.03;1.92;;;;;;;8.73;100.00;102309.41;2090886;28;20080;-85
2023/02/09 02:57:36;;;;;;;4.45;1.85;;;;;;;8.72;100.00;102299.75;2091981;28;20532;-84
2023/02/09 02:59:04;;;;;;;4.35;2.00;;;;;;;8.74;100.00;102304.25;2087865;28;20476;-84
2023/02/09 03:00:33;;;;;;;6.55;1.63;;;;;;;8.74;99.89;102305.97;2092284;28;20124;-85
2023/02/09 03:02:00;;;;;;;4.97;2.40;;;;;;;8.75;99.46;102305.16;2100942;28;20055;-85
2023/02/09 03:03:26;;;;;;;5.93;2.33;;;;;;;8.76;98.71;102301.69;2094339;28;20605;-86
2023/02/09 03:04:54;;;;;;;4.72;1.90;;;;;;;8.77;98.45;102312.31;2093404;28;20049;-84
2023/02/09 03:06:18;;;;;;;6.80;1.90;;;;;;;8.77;96.64;102304.41;2078454;28;20076;-83
2023/02/09 03:07:39;;;;;;;4.00;2.00;;;;;;;8.77;94.72;102309.66;2098193;28;20051;-83
2023/02/09 03:09:01;;;;;;;4.80;1.73;;;;;;;8.78;93.69;102302.69;2097689;28;20566;-83
2023/02/09 03:10:26;;;;;;;3.85;2.15;;;;;;;8.79;93.23;102307.13;2103408;28;20048;-83
2023/02/09 03:11:52;;;;;;;4.45;1.98;;;;;;;8.80;92.81;102290.47;2096916;28;20509;-83
2023/02/09 03:13:37;;;;;;;4.88;1.90;;;;;;;8.80;91.84;102293.09;2086371;28;20494;-84
2023/02/09 03:15:18;;;;;;;4.78;2.28;;;;;;;8.78;92.29;102285.16;2086714;28;20045;-83
2023/02/09 03:16:45;;;;;;;3.92;1.73;;;;;;;8.79;92.38;102296.59;2102594;28;20120;-84
2023/02/09 03:18:17;;;;;;;4.57;2.25;;;;;;;8.79;92.59;102289.56;2088462;28;20146;-83
2023/02/09 03:19:46;;;;;;;3.15;1.70;;;;;;;8.79;92.47;102292.19;2090122;28;20056;-84
2023/02/09 03:21:16;;;;;;;4.63;1.90;;;;;;;8.79;92.48;102289.56;2084760;28;20041;-84
2023/02/09 03:22:41;;;;;;;4.88;2.20;;;;;;;8.80;93.05;102294.00;2104703;28;20043;-83
2023/02/09 03:24:08;;;;;;;6.50;1.90;;;;;;;8.82;94.35;102293.16;2096144;28;20055;-83
2023/02/09 03:25:35;;;;;;;3.97;2.40;;;;;;;8.83;94.80;102289.72;2092962;28;20053;-83
2023/02/09 03:27:01;;;;;;;3.47;2.22;;;;;;;8.82;95.55;102296.72;2084291;28;20128;-82
2023/02/09 03:28:28;;;;;;;4.03;2.10;;;;;;;8.83;96.33;102297.63;2098548;28;20426;-83
2023/02/09 03:29:56;;;;;;;5.85;2.28;;;;;;;8.82;96.90;102286.19;2092969;28;20071;-81
2023/02/09 03:31:19;;;;;;;6.97;2.20;;;;;;;8.82;96.96;102288.81;2089572;28;20087;-83
2023/02/09 03:32:44;;;;;;;5.22;2.08;;;;;;;8.84;97.00;102288.88;2084530;28;20052;-82
2023/02/09 03:34:06;;;;;;;5.85;1.90;;;;;;;8.83;96.21;102276.56;2087301;28;20063;-81
2023/02/09 03:35:41;;;;;;;4.40;2.05;;;;;;;8.84;95.60;102279.25;2081022;28;20147;-82
2023/02/09 03:37:04;;;;;;;4.18;2.17;;;;;;;8.84;95.92;102268.72;2088163;28;20044;-81
2023/02/09 03:38:27;;;;;;;4.75;2.17;;;;;;;8.84;96.39;102278.34;2083237;28;20052;-82
2023/02/09 03:39:48;;;;;;;7.55;2.08;;;;;;;8.85;96.36;102282.81;2085809;28;20045;-81
2023/02/09 03:41:10;;;;;;;5.22;2.22;;;;;;;8.86;96.63;102287.25;2103194;28;20093;-82
2023/02/09 03:42:34;;;;;;;7.47;2.10;;;;;;;8.86;97.05;102289.88;2090258;28;20079;-81
2023/02/09 03:45:35;;;;;;;4.93;1.88;;;;;;;8.85;96.08;102288.06;2089055;28;20079;-81
2023/02/09 03:46:58;;;;;;;3.50;2.15;;;;;;;8.86;95.03;102293.38;2084577;28;20139;-82
2023/02/09 03:48:21;;;;;;;8.23;2.30;;;;;;;8.87;94.89;102295.19;2086842;28;20043;-82
2023/02/09 03:49:44;;;;;;;6.07;2.47;;;;;;;8.88;95.08;102304.91;2078098;28;20053;-82
2023/02/09 03:51:06;;;;;;;4.40;2.13;;;;;;;8.88;95.55;102304.91;2084198;28;20144;-82
2023/02/09 03:52:30;;;;;;;5.07;2.35;;;;;;;8.88;95.17;102298.72;2088448;28;20064;-81
2023/02/09 03:53:51;;;;;;;5.65;2.35;;;;;;;8.87;94.92;102297.81;2080885;28;20056;-82
2023/02/09 03:55:14;;;;;;;6.00;2.30;;;;;;;8.88;94.32;102309.25;2082673;28;20443;-82
2023/02/09 03:56:36;;;;;;;2.75;1.85;;;;;;;8.88;93.90;102314.53;2086674;28;20589;-82
2023/02/09 03:57:58;;;;;;;;;;;;;;;8.83;92.92;102297.63;2094439;28;20037;-81
2023/02/09 03:59:20;;;;;;;6.30;2.03;;;;;;;8.82;93.15;102293.16;2088666;28;20598;-81
2023/02/09 04:00:42;;;;;;;;;;;;;;;8.78;92.88;102311.47;2086278;28;20044;-81
2023/02/09 04:02:06;;;;;;;8.38;2.00;;;;;;;8.81;93.51;102310.69;2085546;28;19921;-81
2023/02/09 04:03:27;;;;;;;5.80;2.40;;;;;;;8.83;93.45;102305.50;2093726;28;20507;-82
2023/02/09 04:04:52;;;;;;;3.33;2.00;;;;;;;8.84;93.35;102312.59;2082711;28;20051;-81
2023/02/09 04:06:13;;;;;;;4.10;1.85;;;;;;;8.83;91.61;102301.16;2094930;28;20149;-81
2023/02/09 04:07:37;;;;;;;3.92;1.83;;;;;;;8.82;90.17;102301.97;2088184;28;20056;-81
2023/02/09 04:08:59;;;;;;;4.60;1.95;;;;;;;8.82;90.21;102301.97;2077793;28;20417;-81
2023/02/09 04:10:21;;;;;;;4.68;1.70;;;;;;;8.81;88.75;102305.44;2099918;28;20044;-81
2023/02/09 04:11:44;;;;;;;6.40;1.58;;;;;;;8.79;87.22;102310.63;2090076;28;20122;-80
2023/02/09 04:13:05;;;;;;;2.47;1.52;;;;;;;8.79;86.38;102317.66;2086369;28;20075;-81
2023/02/09 04:14:27;;;;;;;4.95;1.85;;;;;;;8.78;85.51;102306.22;2088540;28;20280;-81
2023/02/09 04:15:48;;;;;;;4.60;2.30;;;;;;;8.79;85.81;102301.84;2102039;28;20434;-82
2023/02/09 04:17:11;;;;;;;3.33;2.28;;;;;;;8.81;86.19;102310.69;2090957;28;20049;-82
2023/02/09 04:18:33;;;;;;;3.95;1.95;;;;;;;8.80;85.89;102301.91;2087531;28;20052;-82
2023/02/09 04:19:55;;;;;;;4.57;2.20;;;;;;;8.80;85.60;102315.06;2087136;28;20045;-81
2023/02/09 04:21:16;;;;;;;4.63;1.90;;;;;;;8.83;85.67;102297.63;2086403;28;20044;-82
2023/02/09 04:22:40;;;;;;;6.63;2.25;;;;;;;8.85;85.13;102301.22;2087709;28;20451;-83
2023/02/09 04:24:01;;;;;;;5.63;2.00;;;;;;;8.85;84.62;102290.69;2086360;28;20460;-85
2023/02/09 04:25:24;;;;;;;3.25;1.48;;;;;;;8.85;83.76;102303.88;2087177;28;20041;-85
2023/02/09 04:26:45;;;;;;;4.43;2.00;;;;;;;8.85;83.11;102302.13;2077552;28;20151;-84
2023/02/09 04:28:07;;;;;;;4.32;2.10;;;;;;;8.86;83.56;102301.28;2102385;28;20051;-83
2023/02/09 04:29:30;;;;;;;4.38;2.00;;;;;;;8.87;83.93;102299.56;2090635;28;20049;-83
2023/02/09 04:30:53;;;;;;;7.03;2.92;;;;;;;8.87;84.32;102302.19;2085974;28;20401;-83
2023/02/09 04:32:15;;;;;;;5.72;2.03;;;;;;;8.85;84.47;102288.97;2087452;28;20052;-83
2023/02/09 04:33:36;;;;;;;6.50;2.85;;;;;;;8.85;84.02;102288.06;2085950;28;20045;-83
2023/02/09 04:34:59;;;;;;;3.53;1.83;;;;;;;8.85;84.24;102288.97;2092964;28;20044;-83
2023/02/09 04:36:22;;;;;;;4.60;2.28;;;;;;;8.85;83.94;102293.34;2088376;28;20492;-83
2023/02/09 04:37:45;;;;;;;3.92;2.10;;;;;;;8.84;82.51;102289.78;2085559;28;20073;-82
2023/02/09 04:39:08;;;;;;;4.82;2.80;;;;;;;8.84;82.39;102289.78;2093879;28;20122;-83
2023/02/09 04:40:30;;;;;;;4.45;2.67;;;;;;;8.84;82.64;102300.31;2080683;28;20045;-83
2023/02/09 04:41:52;;;;;;;7.95;2.28;;;;;;;8.83;82.79;102289.72;2088348;28;20044;-83
2023/02/09 04:43:15;;;;;;;4.18;1.88;;;;;;;8.82;82.46;102296.72;2088603;28;20433;-84
2023/02/09 04:44:37;;;;;;;5.47;1.90;;;;;;;8.84;81.96;102297.69;2085371;28;20048;-84
2023/02/09 04:46:00;;;;;;;5.32;2.30;;;;;;;8.85;82.36;102301.22;2085124;28;20053;-84
2023/02/09 04:47:22;;;;;;;4.60;1.98;;;;;;;8.84;82.34;102304.69;2081607;28;20485;-83
2023/02/09 04:48:46;;;;;;;8.43;2.70;;;;;;;8.84;83.11;102286.25;2086366;28;20049;-84
2023/02/09 04:50:08;;;;;;;5.30;2.15;;;;;;;8.84;84.35;102288.88;2088138;28;20527;-83
2023/02/09 04:51:32;;;;;;;5.57;2.75;;;;;;;8.86;85.62;102284.59;2085420;28;20057;-83
2023/02/09 04:52:56;;;;;;;4.70;2.42;;;;;;;8.86;86.88;102285.47;2094437;28;20521;-83
2023/02/09 04:54:18;;;;;;;6.68;2.60;;;;;;;8.86;88.41;102281.97;2087194;28;20061;-83
2023/02/09 04:55:42;;;;;;;4.35;2.50;;;;;;;8.87;89.91;102284.66;2101578;28;20592;-83
2023/02/09 05:00:25;;;;;;;5.90;2.67;;;;;;;8.88;91.26;102277.66;2098453;28;20048;-83
2023/02/09 05:01:50;;;;;;;5.50;2.40;;;;;;;8.88;91.47;102282.94;2090812;28;20068;-83
2023/02/09 05:03:15;;;;;;;4.82;2.20;;;;;;;8.88;91.13;102281.19;2083457;28;20180;-82
2023/02/09 05:04:37;;;;;;;3.97;1.92;;;;;;;8.86;91.03;102277.56;2094301;28;20063;-83
2023/02/09 05:06:00;;;;;;;2.83;1.70;;;;;;;8.85;90.67;102280.16;2090516;28;20072;-83
2023/02/09 05:07:27;;;;;;;5.32;2.00;;;;;;;8.83;91.54;102281.81;2090956;28;20096;-83
2023/02/09 05:08:55;;;;;;;5.90;2.25;;;;;;;8.83;90.99;102271.28;2080293;28;20054;-83
2023/02/09 05:10:18;;;;;;;3.95;2.25;;;;;;;8.82;92.26;102267.75;2080096;28;20034;-83
2023/02/09 05:11:41;;;;;;;4.32;1.65;;;;;;;8.82;92.68;102275.66;2086123;28;20727;-83
2023/02/09 05:13:03;;;;;;;5.63;2.58;;;;;;;8.84;93.70;102279.25;2080473;28;20045;-82
2023/02/09 05:14:26;;;;;;;7.45;2.67;;;;;;;8.85;94.79;102275.81;2085946;28;20049;-84
2023/02/09 05:15:47;;;;;;;6.53;2.75;;;;;;;8.86;95.43;102274.06;2087413;28;20051;-82
2023/02/09 05:17:10;;;;;;;6.55;3.00;;;;;;;8.86;95.72;102279.34;2085839;28;20053;-83
2023/02/09 05:18:31;;;;;;;8.00;2.72;;;;;;;8.86;95.90;102285.47;2102295;28;20506;-83
2023/02/09 05:19:54;;;;;;;6.65;2.25;;;;;;;8.85;96.21;102277.53;2091183;28;20124;-84
2023/02/09 05:21:17;;;;;;;20.42;8.35;;;;;;;8.86;96.78;102279.34;2102314;28;20036;-83
2023/02/09 05:22:38;;;;;;;15.25;5.47;;;;;;;8.87;96.93;102273.22;2082600;28;20084;-83
2023/02/09 05:24:02;;;;;;;21.42;6.88;;;;;;;8.87;96.86;102278.47;2085789;28;20132;-83
2023/02/09 05:25:24;;;;;;;7.82;3.33;;;;;;;8.87;97.23;102275.84;2102537;28;20044;-84
2023/02/09 05:26:46;;;;;;;6.43;2.30;;;;;;;8.88;97.35;102275.03;2082046;28;20044;-82
2023/02/09 05:28:07;;;;;;;4.35;1.95;;;;;;;8.87;97.58;102274.13;2090746;28;20059;-84
2023/02/09 05:29:29;;;;;;;5.47;2.30;;;;;;;8.89;96.84;102266.31;2088411;28;20542;-84
2023/02/09 05:30:52;;;;;;;5.25;2.15;;;;;;;8.91;96.65;102283.09;2086162;28;20099;-82
2023/02/09 05:32:14;;;;;;;6.03;2.10;;;;;;;8.92;97.33;102270.00;2086117;28;20220;-84
2023/02/09 05:33:37;;;;;;;6.22;2.00;;;;;;;8.92;97.46;102262.09;2096404;28;20048;-84
2023/02/09 05:34:59;;;;;;;4.32;2.40;;;;;;;8.93;97.81;102273.50;2094258;28;20048;-84
2023/02/09 05:36:21;;;;;;;5.65;2.08;;;;;;;8.93;97.56;102262.97;2091384;28;20463;-83
2023/02/09 05:37:42;;;;;;;4.68;2.13;;;;;;;8.93;97.85;102274.41;2088220;28;20048;-83
2023/02/09 05:39:06;;;;;;;5.75;2.72;;;;;;;8.95;98.00;102282.38;2085510;28;20594;-83
2023/02/09 05:40:27;;;;;;;3.85;2.50;;;;;;;8.95;97.87;102275.38;2085257;28;20074;-83
2023/02/09 05:43:29;;;;;;;6.47;2.75;;;;;;;8.96;98.59;102278.94;2083965;28;20509;-83
2023/02/09 05:44:51;;;;;;;5.05;2.50;;;;;;;8.97;99.38;102276.38;2084877;28;20041;-83
2023/02/09 05:46:14;;;;;;;5.63;2.58;;;;;;;8.99;99.94;102281.72;2101007;28;20065;-83
2023/02/09 05:47:36;;;;;;;4.68;2.40;;;;;;;9.00;100.00;102291.38;2088397;28;20055;-83
2023/02/09 05:48:58;;;;;;;6.30;3.30;;;;;;;8.99;100.00;102290.50;2079971;28;20037;-82
2023/02/09 05:50:20;;;;;;;5.70;2.83;;;;;;;9.01;100.00;102283.56;2087473;28;20053;-84
2023/02/09 05:51:43;;;;;;;4.22;2.40;;;;;;;9.03;100.00;102288.91;2079309;28;20476;-82
2023/02/09 05:53:05;;;;;;;3.35;2.10;;;;;;;9.01;99.56;102288.84;2081189;28;20107;-82
2023/02/09 05:54:28;;;;;;;5.97;2.90;;;;;;;9.02;98.96;102284.47;2087145;28;20060;-83
2023/02/09 05:55:50;;;;;;;7.57;3.10;;;;;;;9.01;99.15;102280.03;2084723;28;20052;-83
2023/02/09 05:57:13;;;;;;;5.70;3.80;;;;;;;9.02;100.00;102290.66;2093880;28;20029;-83
2023/02/09 05:58:35;;;;;;;7.85;3.65;;;;;;;9.03;100.00;102296.81;2084523;28;20053;-83
2023/02/09 05:59:57;;;;;;;7.38;4.20;;;;;;;9.03;100.00;102288.91;2084283;28;20055;-83
2023/02/09 06:01:20;;;;;;;48.33;22.02;;;;;;;9.02;99.31;102285.38;2088044;28;20128;-82
2023/02/09 06:02:44;;;;;;;12.88;7.22;;;;;;;9.01;97.98;102293.19;2083568;28;20044;-83
2023/02/09 06:04:06;;;;;;;6.13;3.72;;;;;;;9.02;97.07;102295.00;2083938;28;20091;-82
2023/02/09 06:05:28;;;;;;;5.63;3.45;;;;;;;9.02;96.93;102295.00;2086057;28;20043;-82
2023/02/09 06:06:50;;;;;;;4.82;2.92;;;;;;;9.01;97.42;102299.38;2089992;28;20076;-83
2023/02/09 06:08:12;;;;;;;9.27;3.67;;;;;;;9.02;97.94;102297.66;2087298;28;20056;-83
2023/02/09 06:09:36;;;;;;;4.72;2.95;;;;;;;9.02;98.06;102301.19;2093480;28;20064;-82
2023/02/09 06:10:58;;;;;;;8.05;3.10;;;;;;;9.02;98.33;102308.19;2079782;28;20053;-82
2023/02/09 06:12:21;;;;;;;7.25;4.72;;;;;;;9.02;98.51;102305.53;2085039;28;20102;-82
2023/02/09 06:13:43;;;;;;;7.97;6.75;;;;;;;9.03;99.22;102304.72;2084890;28;20037;-83
2023/02/09 06:15:06;;;;;;;7.30;4.38;;;;;;;9.02;99.53;102306.44;2084833;28;20053;-81
2023/02/09 06:16:29;;;;;;;6.82;4.05;;;;;;;9.05;99.48;102310.97;2081769;28;20147;-81
2023/02/09 06:17:51;;;;;;;11.13;5.72;;;;;;;9.05;99.78;102313.59;2083420;28;20493;-84
2023/02/09 06:19:15;;;;;;;12.60;8.15;;;;;;;9.06;99.63;102308.38;2084588;28;20056;-82
2023/02/09 06:20:37;;;;;;;14.57;10.57;;;;;;;9.06;99.50;102313.66;2077517;28;20061;-83
2023/02/09 06:21:59;;;;;;;5.35;2.72;;;;;;;9.06;98.77;102313.66;2091538;28;20123;-83
2023/02/09 06:23:23;;;;;;;9.85;6.20;;;;;;;9.07;98.55;102318.09;2086944;28;20056;-83
2023/02/09 06:24:47;;;;;;;12.35;8.35;;;;;;;9.07;98.18;102327.72;2094167;28;20711;-83
2023/02/09 06:26:12;;;;;;;5.22;2.95;;;;;;;9.06;98.28;102333.81;2078788;28;20736;-83
2023/02/09 06:27:34;;;;;;;6.88;4.50;;;;;;;9.05;98.19;102324.13;2082870;28;20112;-83
2023/02/09 06:28:55;;;;;;;12.35;6.30;;;;;;;9.07;98.44;102341.81;2077446;28;20493;-82
2023/02/09 06:30:17;;;;;;;9.25;5.72;;;;;;;9.08;98.62;102335.72;2081503;28;20087;-82
2023/02/09 06:31:40;;;;;;;4.95;2.58;;;;;;;9.08;98.86;102333.06;2084494;28;20464;-83
2023/02/09 06:33:03;;;;;;;6.05;3.45;;;;;;;9.09;98.30;102334.88;2085542;28;20120;-83
2023/02/09 06:34:25;;;;;;;7.38;4.93;;;;;;;9.11;98.44;102334.97;2081107;28;20048;-83
2023/02/09 06:35:47;;;;;;;7.82;5.78;;;;;;;9.13;98.28;102331.53;2084470;28;20033;-83
2023/02/09 06:37:10;;;;;;;7.75;3.20;;;;;;;9.14;97.74;102341.25;2082050;28;20048;-84
2023/02/09 06:38:32;;;;;;;8.77;4.20;;;;;;;9.16;96.65;102352.78;2086598;28;20049;-83
2023/02/09 06:39:56;;;;;;;4.88;2.13;;;;;;;9.17;95.68;102344.06;2087037;28;20125;-84
2023/02/09 06:41:18;;;;;;;6.70;4.38;;;;;;;9.19;95.14;102354.63;2086109;28;20029;-83
2023/02/09 06:42:43;;;;;;;4.43;2.92;;;;;;;9.20;94.04;102345.91;2087891;28;20128;-83
2023/02/09 06:44:06;;;;;;;3.78;1.88;;;;;;;9.21;93.04;102352.97;2085580;28;20521;-83
2023/02/09 06:45:28;;;;;;;7.53;2.35;;;;;;;9.23;92.29;102353.06;2088551;28;20040;-81
2023/02/09 06:46:51;;;;;;;4.07;2.75;;;;;;;9.23;92.04;102361.88;2082316;28;20206;-83
2023/02/09 06:48:13;;;;;;;3.72;2.35;;;;;;;9.23;92.40;102353.97;2083753;28;20048;-85
2023/02/09 06:49:35;;;;;;;7.40;5.57;;;;;;;9.24;93.02;102361.06;2083413;28;20045;-85
2023/02/09 06:50:58;;;;;;;9.57;6.00;;;;;;;9.25;93.56;102365.50;2083565;28;20041;-82